createdAt,value
2019-01-11T00:02:42.794Z,5.85
2019-01-11T00:07:46.832Z,4.12
2019-01-11T00:12:50.868Z,4.22
2019-01-11T00:17:54.931Z,2.87
2019-01-11T00:22:59.579Z,2.47
2019-01-11T00:28:03.880Z,1.50
2019-01-11T00:33:07.909Z,1.20
2019-01-11T00:38:11.861Z,0.98
2019-01-11T00:43:15.926Z,1.80
2019-01-11T00:48:20.257Z,4.67
2019-01-11T00:53:24.387Z,0.70
2019-01-11T00:58:28.197Z,0.30
2019-01-11T01:03:32.369Z,2.40
2019-01-11T01:08:36.618Z,3.47
2019-01-11T01:13:40.567Z,1.95
2019-01-11T01:18:44.581Z,1.65
2019-01-11T01:23:51.046Z,1.37
2019-01-11T01:28:55.109Z,0.70
2019-01-11T01:33:59.036Z,1.65
2019-01-11T01:39:05.996Z,2.35
2019-01-11T01:44:10.021Z,2.05
2019-01-11T01:49:14.132Z,2.05
2019-01-11T01:54:18.839Z,4.05
2019-01-11T01:59:22.822Z,2.10
2019-01-11T02:04:26.777Z,3.05
2019-01-11T02:09:30.721Z,1.15
2019-01-11T02:14:34.643Z,0.53
2019-01-11T02:19:38.725Z,1.15
2019-01-11T02:24:45.012Z,0.60
2019-01-11T02:29:48.936Z,0.17
2019-01-11T02:34:52.924Z,0.10
2019-01-11T02:39:56.848Z,0.40
2019-01-11T02:45:00.774Z,0.25
2019-01-11T02:50:05.686Z,0.75
2019-01-11T02:55:09.711Z,0.82
2019-01-11T03:00:18.852Z,0.57
2019-01-11T03:05:25.416Z,0.10
2019-01-11T03:10:29.516Z,0.90
2019-01-11T03:15:33.514Z,0.68
2019-01-11T03:20:37.711Z,0.28
2019-01-11T03:25:44.075Z,0.20
2019-01-11T03:30:48.083Z,0.33
2019-01-11T03:35:51.964Z,0.25
2019-01-11T03:40:55.981Z,0.40
2019-01-11T03:45:59.884Z,0.82
2019-01-11T03:51:04.119Z,0.70
2019-01-11T03:56:08.145Z,0.72
2019-01-11T04:01:12.128Z,0.50
2019-01-11T04:06:18.405Z,0.15
2019-01-11T04:11:22.904Z,0.53
2019-01-11T04:16:28.958Z,1.05
2019-01-11T04:21:33.244Z,1.22
2019-01-11T04:26:39.385Z,0.40
2019-01-11T04:31:43.424Z,0.85
2019-01-11T04:36:47.250Z,0.78
2019-01-11T04:41:51.213Z,1.60
2019-01-11T04:46:55.175Z,1.65
2019-01-11T04:51:59.363Z,0.78
2019-01-11T04:57:03.872Z,0.60
2019-01-11T05:02:08.109Z,0.33
2019-01-11T05:07:12.261Z,0.55
2019-01-11T05:12:16.628Z,0.42
2019-01-11T05:17:20.538Z,0.90
2019-01-11T05:22:26.180Z,1.15
2019-01-11T05:27:34.348Z,1.47
2019-01-11T05:32:38.524Z,0.62
2019-01-11T05:37:42.442Z,0.72
2019-01-11T05:42:46.569Z,0.20
2019-01-11T05:47:50.478Z,0.45
2019-01-11T05:52:54.618Z,0.90
2019-01-11T05:58:27.733Z,0.10
2019-01-11T06:03:31.697Z,0.25
2019-01-11T06:08:36.522Z,0.42
2019-01-11T06:13:40.474Z,0.75
2019-01-11T06:18:44.517Z,0.20
2019-01-11T06:23:48.533Z,0.57
2019-01-11T06:28:53.085Z,1.07
2019-01-11T06:33:57.157Z,1.95
2019-01-11T06:39:01.045Z,0.42
2019-01-11T06:44:05.021Z,0.42
2019-01-11T06:49:12.096Z,1.55
2019-01-11T06:54:16.065Z,0.62
2019-01-11T06:59:20.093Z,0.45
2019-01-11T07:04:24.181Z,0.45
2019-01-11T07:09:31.376Z,0.82
2019-01-11T07:14:36.169Z,1.27
2019-01-11T07:19:40.044Z,1.20
2019-01-11T07:24:45.040Z,0.47
2019-01-11T07:29:49.372Z,0.85
2019-01-11T07:34:53.631Z,0.40
2019-01-11T07:39:58.446Z,1.00
2019-01-11T07:45:03.382Z,2.25
2019-01-11T07:50:08.082Z,1.77
2019-01-11T07:55:12.301Z,0.25
2019-01-11T08:00:17.526Z,9.38
2019-01-11T08:05:21.627Z,8.15
2019-01-11T08:10:25.986Z,9.63
2019-01-11T08:15:31.971Z,12.85
2019-01-11T08:20:36.224Z,44.53
2019-01-11T08:25:41.112Z,55.43
2019-01-11T08:30:46.296Z,49.95
2019-01-11T08:35:50.711Z,46.88
2019-01-11T08:40:54.652Z,26.42
2019-01-11T08:45:59.160Z,24.47
2019-01-11T08:51:03.934Z,20.43
2019-01-11T08:56:08.829Z,25.95
2019-01-11T09:01:13.139Z,27.30
2019-01-11T09:06:18.757Z,27.95
2019-01-11T09:11:22.720Z,27.13
2019-01-11T09:16:26.873Z,26.82
2019-01-11T09:21:30.871Z,31.12
2019-01-11T09:26:34.980Z,25.72
2019-01-11T09:31:41.527Z,43.30
2019-01-11T09:36:45.758Z,75.30
2019-01-11T09:41:49.848Z,60.00
2019-01-11T09:46:54.108Z,30.32
2019-01-11T09:51:58.194Z,36.03
2019-01-11T09:57:02.571Z,40.20
2019-01-11T10:02:25.214Z,29.63
2019-01-11T10:07:30.375Z,69.35
2019-01-11T10:12:34.604Z,38.58
2019-01-11T10:17:38.792Z,42.40
2019-01-11T10:22:43.244Z,34.78
2019-01-11T10:27:47.228Z,32.25
2019-01-11T10:32:51.976Z,38.67
2019-01-11T10:37:56.068Z,33.08
2019-01-11T10:43:00.229Z,31.42
2019-01-11T10:48:05.054Z,32.80
2019-01-11T10:53:09.723Z,36.13
2019-01-11T10:58:14.146Z,30.45
2019-01-11T11:03:18.101Z,29.90
2019-01-11T11:08:22.102Z,33.50
2019-01-11T11:13:26.138Z,38.08
2019-01-11T11:18:30.676Z,25.68
2019-01-11T11:23:35.464Z,28.87
2019-01-11T11:28:39.825Z,25.25
2019-01-11T11:33:45.854Z,23.83
2019-01-11T11:38:50.285Z,23.50
2019-01-11T11:43:54.782Z,28.55
2019-01-11T11:48:59.144Z,32.25
2019-01-11T11:54:03.327Z,32.58
2019-01-11T11:59:07.623Z,33.75
2019-01-11T12:04:12.115Z,97.47
2019-01-11T12:09:16.045Z,40.23
2019-01-11T12:14:20.304Z,35.33
2019-01-11T12:19:24.270Z,31.77
2019-01-11T12:24:28.305Z,32.10
2019-01-11T12:29:32.524Z,33.18
2019-01-11T12:34:38.483Z,27.70
2019-01-11T12:39:42.827Z,24.85
2019-01-11T12:44:47.032Z,31.97
2019-01-11T12:49:51.090Z,44.93
2019-01-11T12:54:56.326Z,32.35
2019-01-11T13:00:00.653Z,27.67
2019-01-11T13:05:06.472Z,24.65
2019-01-11T13:10:12.449Z,29.20
2019-01-11T13:15:18.830Z,35.80
2019-01-11T13:20:23.521Z,29.42
2019-01-11T13:25:32.066Z,32.90
2019-01-11T13:30:33.719Z,33.80
2019-01-11T13:35:38.761Z,36.10
2019-01-11T13:40:43.544Z,30.65
2019-01-11T13:45:47.924Z,51.48
2019-01-11T13:50:52.228Z,40.15
2019-01-11T13:55:56.296Z,46.45
2019-01-11T14:01:00.580Z,37.53
2019-01-11T14:06:04.700Z,34.55
2019-01-11T14:11:09.443Z,31.80
2019-01-11T14:16:13.826Z,43.70
2019-01-11T14:21:17.802Z,45.48
2019-01-11T14:26:21.821Z,49.48
2019-01-11T14:31:25.993Z,44.45
2019-01-11T14:36:30.657Z,56.05
2019-01-11T14:41:35.766Z,173.80
2019-01-11T14:46:39.778Z,154.75
2019-01-11T14:51:43.953Z,135.63
2019-01-11T14:56:47.878Z,135.55
2019-01-11T15:01:52.480Z,111.90
2019-01-11T15:06:57.120Z,137.25
2019-01-11T15:12:01.416Z,129.72
2019-01-11T15:17:05.365Z,95.75
2019-01-11T15:22:09.578Z,103.07
2019-01-11T15:27:13.565Z,98.23
2019-01-11T15:32:17.718Z,180.85
2019-01-11T15:37:22.908Z,61.08
2019-01-11T15:42:26.863Z,124.57
2019-01-11T15:47:30.829Z,120.35
2019-01-11T15:52:35.076Z,72.95
2019-01-11T15:57:42.757Z,130.47
2019-01-11T16:02:47.090Z,107.50
2019-01-11T16:07:51.071Z,105.83
2019-01-11T16:13:10.904Z,60.35
2019-01-11T16:18:22.372Z,66.65
2019-01-11T16:23:26.292Z,124.87
2019-01-11T16:28:30.675Z,84.75
2019-01-11T16:33:34.670Z,49.15
2019-01-11T16:38:39.648Z,38.78
2019-01-11T16:43:43.905Z,56.58
2019-01-11T16:48:47.991Z,124.67
2019-01-11T16:53:52.321Z,39.73
2019-01-11T16:58:56.413Z,88.60
2019-01-11T17:04:00.636Z,143.05
2019-01-11T17:09:07.415Z,141.67
2019-01-11T17:14:11.617Z,611.45
2019-01-11T17:19:15.572Z,134.78
2019-01-11T17:24:19.879Z,82.07
2019-01-11T17:29:23.913Z,80.42
2019-01-11T17:34:28.204Z,69.10
2019-01-11T17:39:33.375Z,101.78
2019-01-11T17:44:37.594Z,44.30
2019-01-11T17:49:41.711Z,31.10
2019-01-11T17:54:45.718Z,23.20
2019-01-11T17:59:49.705Z,20.12
2019-01-11T18:04:55.321Z,24.92
2019-01-11T18:10:01.264Z,24.92
2019-01-11T18:15:19.150Z,16.48
2019-01-11T18:20:26.794Z,10.20
2019-01-11T18:25:32.057Z,12.47
2019-01-11T18:30:36.359Z,12.58
2019-01-11T18:35:40.446Z,11.22
2019-01-11T18:40:44.821Z,11.03
2019-01-11T18:45:49.086Z,10.03
2019-01-11T18:50:53.266Z,12.95
2019-01-11T18:56:07.827Z,11.48
2019-01-11T19:01:19.472Z,12.93
2019-01-11T19:06:26.062Z,11.00
2019-01-11T19:11:30.526Z,16.30
2019-01-11T19:16:35.081Z,13.85
2019-01-11T19:21:39.418Z,12.82
2019-01-11T19:26:43.626Z,9.23
2019-01-11T19:31:48.152Z,13.35
2019-01-11T19:36:52.499Z,11.33
2019-01-11T19:41:57.178Z,12.45
2019-01-11T19:47:01.546Z,14.50
2019-01-11T19:52:05.824Z,12.58
2019-01-11T19:57:09.990Z,15.23
2019-01-11T20:02:15.242Z,14.00
2019-01-11T20:07:19.567Z,10.40
2019-01-11T20:12:23.976Z,12.30
2019-01-11T20:17:29.366Z,12.53
2019-01-11T20:22:33.994Z,13.65
2019-01-11T20:27:38.001Z,10.72
2019-01-11T20:32:42.375Z,10.35
2019-01-11T20:37:46.763Z,12.43
2019-01-11T20:42:51.854Z,18.82
2019-01-11T20:47:55.929Z,18.40
2019-01-11T20:53:00.127Z,17.17
2019-01-11T20:58:04.331Z,15.65
2019-01-11T21:03:08.439Z,13.18
2019-01-11T21:08:14.739Z,15.68
2019-01-11T21:13:18.829Z,14.03
2019-01-11T21:18:23.070Z,12.55
2019-01-11T21:23:27.323Z,11.57
2019-01-11T21:28:31.493Z,13.83
2019-01-11T21:33:35.531Z,14.70
2019-01-11T21:38:39.639Z,15.30
2019-01-11T21:43:43.924Z,14.20
2019-01-11T21:48:47.995Z,13.18
2019-01-11T21:53:55.718Z,15.03
2019-01-11T21:58:58.013Z,11.40
2019-01-11T22:04:02.015Z,12.33
2019-01-11T22:09:07.788Z,11.48
2019-01-11T22:14:11.980Z,12.00
2019-01-11T22:19:34.130Z,12.00
2019-01-11T22:24:38.369Z,10.32
2019-01-11T22:29:42.362Z,11.70
2019-01-11T22:34:46.349Z,9.88
2019-01-11T22:39:50.385Z,8.70
2019-01-11T22:44:54.706Z,9.90
2019-01-11T22:49:58.919Z,8.43
2019-01-11T22:55:03.621Z,9.25
2019-01-11T23:00:46.380Z,9.65
2019-01-11T23:05:53.315Z,10.23
2019-01-11T23:11:33.455Z,10.82
2019-01-11T23:17:12.258Z,8.43
2019-01-11T23:22:16.436Z,10.25
2019-01-11T23:27:20.477Z,8.90
2019-01-11T23:32:24.565Z,7.87
2019-01-11T23:37:28.585Z,8.73
2019-01-11T23:42:32.688Z,10.05
2019-01-11T23:47:37.298Z,10.00
2019-01-11T23:52:41.494Z,9.18
2019-01-11T23:57:45.410Z,7.97
